createdAt,value
2019-01-15T00:00:10.676Z,96.96
2019-01-15T00:02:39.109Z,97.16
2019-01-15T00:05:07.947Z,97.11
2019-01-15T00:07:36.631Z,97.39
2019-01-15T00:10:08.297Z,97.35
2019-01-15T00:12:37.073Z,97.44
2019-01-15T00:15:08.629Z,97.33
2019-01-15T00:17:37.046Z,97.27
2019-01-15T00:20:11.706Z,97.63
2019-01-15T00:22:41.771Z,97.63
2019-01-15T00:25:11.231Z,97.66
2019-01-15T00:27:40.086Z,97.51
2019-01-15T00:30:17.569Z,97.41
2019-01-15T00:32:46.382Z,97.70
2019-01-15T00:35:15.157Z,97.81
2019-01-15T00:37:45.413Z,97.93
2019-01-15T00:40:18.350Z,98.10
2019-01-15T00:42:46.932Z,98.41
2019-01-15T00:45:15.547Z,98.46
2019-01-15T00:47:45.801Z,98.83
2019-01-15T00:50:15.962Z,98.86
2019-01-15T00:52:46.234Z,98.81
2019-01-15T00:55:14.990Z,98.96
2019-01-15T00:57:43.973Z,98.85
2019-01-15T01:00:23.051Z,98.62
2019-01-15T01:02:52.180Z,98.35
2019-01-15T01:05:21.006Z,98.62
2019-01-15T01:07:49.985Z,98.85
2019-01-15T01:10:18.858Z,98.88
2019-01-15T01:12:47.705Z,98.69
2019-01-15T01:15:17.375Z,98.71
2019-01-15T01:17:47.399Z,98.76
2019-01-15T01:20:18.834Z,98.89
2019-01-15T01:22:48.892Z,99.06
2019-01-15T01:25:17.587Z,99.17
2019-01-15T01:27:47.478Z,99.19
2019-01-15T01:30:18.496Z,99.44
2019-01-15T01:32:48.498Z,99.59
2019-01-15T01:35:17.369Z,99.52
2019-01-15T01:37:48.664Z,99.53
2019-01-15T01:40:18.888Z,99.57
2019-01-15T01:42:47.863Z,99.77
2019-01-15T01:45:17.175Z,99.84
2019-01-15T01:47:46.017Z,99.96
2019-01-15T01:50:15.167Z,99.71
2019-01-15T01:52:44.425Z,99.94
2019-01-15T01:55:14.571Z,99.92
2019-01-15T01:57:43.424Z,100.00
2019-01-15T02:00:15.206Z,100.00
2019-01-15T02:02:44.207Z,100.00
2019-01-15T02:05:13.442Z,100.00
2019-01-15T02:07:42.210Z,100.00
2019-01-15T02:10:13.665Z,100.00
2019-01-15T02:12:42.561Z,100.00
2019-01-15T02:15:17.138Z,100.00
2019-01-15T02:17:46.068Z,100.00
2019-01-15T02:20:19.064Z,100.00
2019-01-15T02:22:47.697Z,100.00
2019-01-15T02:25:16.303Z,100.00
2019-01-15T02:27:46.681Z,100.00
2019-01-15T02:30:23.239Z,100.00
2019-01-15T02:32:53.043Z,100.00
2019-01-15T02:35:21.585Z,100.00
2019-01-15T02:37:50.463Z,100.00
2019-01-15T02:40:19.169Z,100.00
2019-01-15T02:42:48.005Z,100.00
2019-01-15T02:45:20.635Z,100.00
2019-01-15T02:47:49.468Z,100.00
2019-01-15T02:50:20.383Z,100.00
2019-01-15T02:52:49.167Z,100.00
2019-01-15T02:55:17.641Z,100.00
2019-01-15T02:57:46.144Z,100.00
2019-01-15T03:00:22.560Z,100.00
2019-01-15T03:02:51.147Z,100.00
2019-01-15T03:05:20.139Z,100.00
2019-01-15T03:07:48.716Z,100.00
2019-01-15T03:10:19.664Z,100.00
2019-01-15T03:12:56.745Z,100.00
2019-01-15T03:15:23.148Z,100.00
2019-01-15T03:17:51.997Z,100.00
2019-01-15T03:20:20.479Z,100.00
2019-01-15T03:22:50.299Z,100.00
2019-01-15T03:25:19.125Z,100.00
2019-01-15T03:27:48.018Z,100.00
2019-01-15T03:30:22.034Z,100.00
2019-01-15T03:32:50.622Z,100.00
2019-01-15T03:35:19.154Z,100.00
2019-01-15T03:37:47.553Z,100.00
2019-01-15T03:40:24.528Z,100.00
2019-01-15T03:42:53.283Z,100.00
2019-01-15T03:45:22.123Z,100.00
2019-01-15T03:47:50.929Z,100.00
2019-01-15T03:50:19.503Z,100.00
2019-01-15T03:52:48.351Z,100.00
2019-01-15T03:55:17.240Z,100.00
2019-01-15T03:57:46.087Z,100.00
2019-01-15T04:00:20.559Z,100.00
2019-01-15T04:02:49.520Z,100.00
2019-01-15T04:05:18.059Z,100.00
2019-01-15T04:07:48.898Z,100.00
2019-01-15T04:10:17.615Z,100.00
2019-01-15T04:12:46.391Z,100.00
2019-01-15T04:15:15.031Z,100.00
2019-01-15T04:17:43.766Z,100.00
2019-01-15T04:20:16.718Z,100.00
2019-01-15T04:22:45.554Z,100.00
2019-01-15T04:25:14.957Z,100.00
2019-01-15T04:27:43.929Z,100.00
2019-01-15T04:30:18.287Z,100.00
2019-01-15T04:32:46.706Z,100.00
2019-01-15T04:35:15.259Z,100.00
2019-01-15T04:37:44.023Z,100.00
2019-01-15T04:40:18.458Z,100.00
2019-01-15T04:42:47.254Z,100.00
2019-01-15T04:45:18.373Z,100.00
2019-01-15T04:47:47.240Z,100.00
2019-01-15T04:50:16.972Z,100.00
2019-01-15T04:52:47.594Z,100.00
2019-01-15T04:55:16.133Z,100.00
2019-01-15T04:57:44.604Z,100.00
2019-01-15T05:00:21.689Z,100.00
2019-01-15T05:02:50.615Z,100.00
2019-01-15T05:05:19.083Z,100.00
2019-01-15T05:07:47.846Z,100.00
2019-01-15T05:10:17.247Z,100.00
2019-01-15T05:12:46.190Z,100.00
2019-01-15T05:15:16.549Z,100.00
2019-01-15T05:17:45.474Z,100.00
2019-01-15T05:20:16.768Z,100.00
2019-01-15T05:22:45.539Z,100.00
2019-01-15T05:25:19.515Z,100.00
2019-01-15T05:27:48.235Z,100.00
2019-01-15T05:30:22.431Z,100.00
2019-01-15T05:32:51.194Z,100.00
2019-01-15T05:35:19.734Z,100.00
2019-01-15T05:37:48.556Z,100.00
2019-01-15T05:40:17.541Z,100.00
2019-01-15T05:42:46.217Z,100.00
2019-01-15T05:45:19.368Z,100.00
2019-01-15T05:47:48.756Z,100.00
2019-01-15T05:50:19.064Z,100.00
2019-01-15T05:52:47.787Z,100.00
2019-01-15T05:55:16.497Z,100.00
2019-01-15T05:57:45.233Z,100.00
2019-01-15T06:00:16.637Z,100.00
2019-01-15T06:02:45.320Z,100.00
2019-01-15T06:05:14.586Z,100.00
2019-01-15T06:07:43.271Z,100.00
2019-01-15T06:10:15.955Z,100.00
2019-01-15T06:12:44.706Z,100.00
2019-01-15T06:15:15.250Z,100.00
2019-01-15T06:17:44.009Z,100.00
2019-01-15T06:20:15.609Z,100.00
2019-01-15T06:22:44.499Z,100.00
2019-01-15T06:25:13.767Z,100.00
2019-01-15T06:27:42.700Z,100.00
2019-01-15T06:30:16.625Z,100.00
2019-01-15T06:32:45.330Z,100.00
2019-01-15T06:35:14.204Z,100.00
2019-01-15T06:37:42.735Z,100.00
2019-01-15T06:40:18.804Z,100.00
2019-01-15T06:42:47.652Z,100.00
2019-01-15T06:45:19.345Z,100.00
2019-01-15T06:47:48.079Z,100.00
2019-01-15T06:50:16.635Z,100.00
2019-01-15T06:52:45.237Z,100.00
2019-01-15T06:55:16.420Z,100.00
2019-01-15T06:57:45.175Z,100.00
2019-01-15T07:00:19.430Z,100.00
2019-01-15T07:02:47.998Z,100.00
2019-01-15T07:05:16.817Z,100.00
2019-01-15T07:07:45.314Z,100.00
2019-01-15T07:10:22.772Z,100.00
2019-01-15T07:12:51.186Z,100.00
2019-01-15T07:15:21.976Z,100.00
2019-01-15T07:17:50.670Z,100.00
2019-01-15T07:20:19.073Z,100.00
2019-01-15T07:22:47.849Z,100.00
2019-01-15T07:25:22.022Z,100.00
2019-01-15T07:27:50.595Z,100.00
2019-01-15T07:30:25.176Z,100.00
2019-01-15T07:32:55.379Z,100.00
2019-01-15T07:35:24.037Z,100.00
2019-01-15T07:37:52.879Z,100.00
2019-01-15T07:40:21.585Z,100.00
2019-01-15T07:42:50.435Z,100.00
2019-01-15T07:45:19.192Z,100.00
2019-01-15T07:47:47.702Z,100.00
2019-01-15T07:50:18.898Z,100.00
2019-01-15T07:52:47.961Z,100.00
2019-01-15T07:55:18.729Z,100.00
2019-01-15T07:57:47.166Z,100.00
2019-01-15T08:00:18.508Z,100.00
2019-01-15T08:02:47.082Z,100.00
2019-01-15T08:05:17.940Z,100.00
2019-01-15T08:07:46.819Z,100.00
2019-01-15T08:10:17.335Z,100.00
2019-01-15T08:12:46.274Z,100.00
2019-01-15T08:15:18.092Z,100.00
2019-01-15T08:17:46.907Z,100.00
2019-01-15T08:20:15.808Z,100.00
2019-01-15T08:22:44.663Z,100.00
2019-01-15T08:25:15.156Z,100.00
2019-01-15T08:27:43.988Z,100.00
2019-01-15T08:30:27.289Z,100.00
2019-01-15T08:32:57.265Z,100.00
2019-01-15T08:35:26.229Z,100.00
2019-01-15T08:37:54.992Z,100.00
2019-01-15T08:40:23.673Z,100.00
2019-01-15T08:42:52.515Z,100.00
2019-01-15T08:45:21.290Z,100.00
2019-01-15T08:47:51.464Z,100.00
2019-01-15T08:50:23.251Z,100.00
2019-01-15T08:52:51.965Z,100.00
2019-01-15T08:55:20.717Z,100.00
2019-01-15T08:57:49.533Z,100.00
2019-01-15T09:00:18.077Z,100.00
2019-01-15T09:02:48.020Z,100.00
2019-01-15T09:05:16.735Z,100.00
2019-01-15T09:07:45.505Z,100.00
2019-01-15T09:10:18.526Z,100.00
2019-01-15T09:12:47.745Z,100.00
2019-01-15T09:15:21.828Z,100.00
2019-01-15T09:17:50.355Z,100.00
2019-01-15T09:20:20.908Z,99.98
2019-01-15T09:22:50.202Z,99.86
2019-01-15T09:25:19.204Z,99.80
2019-01-15T09:27:48.114Z,99.79
2019-01-15T09:30:22.124Z,99.81
2019-01-15T09:32:51.354Z,99.65
2019-01-15T09:35:20.216Z,99.66
2019-01-15T09:37:50.276Z,99.54
2019-01-15T09:40:21.122Z,99.61
2019-01-15T09:42:49.680Z,99.52
2019-01-15T09:45:20.564Z,99.12
2019-01-15T09:47:51.060Z,99.01
2019-01-15T09:50:19.776Z,98.94
2019-01-15T09:52:48.551Z,98.78
2019-01-15T09:55:17.394Z,98.04
2019-01-15T09:57:45.940Z,98.18
2019-01-15T10:00:17.987Z,98.41
2019-01-15T10:02:46.794Z,98.26
2019-01-15T10:05:15.616Z,98.21
2019-01-15T10:07:44.307Z,98.13
2019-01-15T10:10:17.540Z,98.18
2019-01-15T10:12:46.307Z,97.88
2019-01-15T10:15:17.776Z,97.85
2019-01-15T10:17:46.767Z,98.06
2019-01-15T10:20:17.806Z,98.01
2019-01-15T10:22:47.337Z,97.61
2019-01-15T10:25:20.811Z,97.61
2019-01-15T10:27:51.485Z,97.56
2019-01-15T10:30:36.831Z,97.43
2019-01-15T10:33:11.158Z,97.39
2019-01-15T10:35:58.437Z,97.20
2019-01-15T10:38:29.071Z,96.87
2019-01-15T10:40:58.580Z,97.01
2019-01-15T10:43:29.106Z,96.58
2019-01-15T10:45:58.405Z,96.77
2019-01-15T10:48:26.967Z,96.35
2019-01-15T10:50:55.644Z,95.97
2019-01-15T10:53:25.830Z,95.67
2019-01-15T10:55:54.588Z,95.89
2019-01-15T10:58:23.379Z,95.58
2019-01-15T11:00:51.855Z,95.08
2019-01-15T11:03:20.639Z,95.34
2019-01-15T11:05:49.396Z,94.49
2019-01-15T11:08:18.192Z,93.63
2019-01-15T11:10:46.575Z,93.64
2019-01-15T11:13:15.548Z,94.04
2019-01-15T11:15:44.296Z,93.92
2019-01-15T11:18:13.025Z,93.45
2019-01-15T11:20:41.806Z,93.17
2019-01-15T11:23:10.488Z,92.88
2019-01-15T11:25:39.269Z,92.36
2019-01-15T11:28:08.098Z,92.58
2019-01-15T11:30:36.878Z,92.65
2019-01-15T11:33:05.469Z,92.50
2019-01-15T11:35:34.278Z,92.26
2019-01-15T11:38:02.712Z,91.57
2019-01-15T11:40:31.220Z,90.91
2019-01-15T11:42:59.924Z,91.20
2019-01-15T11:45:28.699Z,90.70
2019-01-15T11:47:57.094Z,89.91
2019-01-15T11:50:25.934Z,90.49
2019-01-15T11:52:54.461Z,90.29
2019-01-15T11:55:23.167Z,90.34
2019-01-15T11:57:51.568Z,89.42
2019-01-15T12:00:36.081Z,89.04
2019-01-15T12:03:07.488Z,89.82
2019-01-15T12:05:46.353Z,89.53
2019-01-15T12:08:22.678Z,88.77
2019-01-15T12:10:58.838Z,88.36
2019-01-15T12:13:45.274Z,88.25
2019-01-15T12:16:21.367Z,88.83
2019-01-15T12:18:54.343Z,88.20
2019-01-15T12:21:42.580Z,88.34
2019-01-15T12:24:15.401Z,88.41
2019-01-15T12:27:03.811Z,88.46
2019-01-15T12:29:50.012Z,88.22
2019-01-15T12:32:26.075Z,87.28
2019-01-15T12:35:09.832Z,86.82
2019-01-15T12:37:45.664Z,86.92
2019-01-15T12:40:25.278Z,87.03
2019-01-15T12:42:58.693Z,86.98
2019-01-15T12:45:43.959Z,86.62
2019-01-15T12:48:30.029Z,87.18
2019-01-15T12:51:03.206Z,86.48
2019-01-15T12:53:33.536Z,87.15
2019-01-15T12:56:22.396Z,87.00
2019-01-15T12:58:53.980Z,87.36
2019-01-15T13:01:30.138Z,87.99
2019-01-15T13:04:15.212Z,88.35
2019-01-15T13:06:54.011Z,88.24
2019-01-15T13:09:27.105Z,88.01
2019-01-15T13:12:13.688Z,87.71
2019-01-15T13:14:53.199Z,87.10
2019-01-15T13:17:29.180Z,86.68
2019-01-15T13:19:59.517Z,86.55
2019-01-15T13:22:45.983Z,86.41
2019-01-15T13:25:34.720Z,86.67
2019-01-15T13:28:21.368Z,87.09
2019-01-15T13:31:03.838Z,87.27
2019-01-15T13:33:42.934Z,86.79
2019-01-15T13:36:21.897Z,87.38
2019-01-15T13:39:08.457Z,87.21
2019-01-15T13:41:54.700Z,86.67
2019-01-15T13:44:36.967Z,86.46
2019-01-15T13:47:22.147Z,86.97
2019-01-15T13:50:07.405Z,86.79
2019-01-15T13:52:43.205Z,86.28
2019-01-15T13:55:20.528Z,87.07
2019-01-15T13:57:50.912Z,86.95
2019-01-15T14:00:30.179Z,86.49
2019-01-15T14:03:15.219Z,86.59
2019-01-15T14:06:01.766Z,86.76
2019-01-15T14:08:32.134Z,87.19
2019-01-15T14:11:17.928Z,87.13
2019-01-15T14:14:03.566Z,87.27
2019-01-15T14:16:33.965Z,87.48
2019-01-15T14:19:13.038Z,88.01
2019-01-15T14:21:59.314Z,88.17
2019-01-15T14:24:29.442Z,87.94
2019-01-15T14:27:02.825Z,88.13
2019-01-15T14:29:32.871Z,88.62
2019-01-15T14:32:06.856Z,89.56
2019-01-15T14:34:36.921Z,89.70
2019-01-15T14:37:23.888Z,90.04
2019-01-15T14:39:54.269Z,90.06
2019-01-15T14:42:24.340Z,90.08
2019-01-15T14:45:00.697Z,90.33
2019-01-15T14:47:59.866Z,90.33
2019-01-15T14:50:38.820Z,89.99
2019-01-15T14:53:24.280Z,89.97
2019-01-15T14:56:09.510Z,90.37
2019-01-15T14:58:56.116Z,90.73
2019-01-15T15:01:42.601Z,90.85
2019-01-15T15:04:29.561Z,90.89
2019-01-15T15:07:05.669Z,90.91
2019-01-15T15:09:38.647Z,90.59
2019-01-15T15:12:09.039Z,90.78
2019-01-15T15:14:55.576Z,90.79
2019-01-15T15:17:31.583Z,90.84
2019-01-15T15:20:08.209Z,90.99
2019-01-15T15:22:44.662Z,90.85
2019-01-15T15:25:15.094Z,91.08
2019-01-15T15:27:53.939Z,90.95
2019-01-15T15:30:24.407Z,90.40
2019-01-15T15:33:06.498Z,90.87
2019-01-15T15:35:48.653Z,90.98
2019-01-15T15:38:35.049Z,90.79
2019-01-15T15:41:09.033Z,91.09
2019-01-15T15:43:39.092Z,90.88
2019-01-15T15:46:15.219Z,91.19
2019-01-15T15:48:48.238Z,91.22
2019-01-15T15:51:33.750Z,91.71
2019-01-15T15:54:06.859Z,91.40
2019-01-15T15:56:53.477Z,91.50
2019-01-15T15:59:40.001Z,91.24
2019-01-15T16:02:19.737Z,91.36
2019-01-15T16:04:50.145Z,91.37
2019-01-15T16:07:36.845Z,91.18
2019-01-15T16:10:10.230Z,91.02
2019-01-15T16:12:49.234Z,91.31
2019-01-15T16:15:25.387Z,91.25
2019-01-15T16:17:55.818Z,91.46
2019-01-15T16:20:32.087Z,91.86
2019-01-15T16:23:17.925Z,91.84
2019-01-15T16:25:59.930Z,91.92
2019-01-15T16:28:30.277Z,91.82
2019-01-15T16:31:16.479Z,91.81
2019-01-15T16:34:03.118Z,92.08
2019-01-15T16:36:33.473Z,92.10
2019-01-15T16:39:09.580Z,91.87
2019-01-15T16:41:39.918Z,91.81
2019-01-15T16:44:19.083Z,91.93
2019-01-15T16:47:05.725Z,91.68
2019-01-15T16:49:53.499Z,91.66
2019-01-15T16:52:26.007Z,92.03
2019-01-15T16:54:56.334Z,91.96
2019-01-15T16:57:41.674Z,92.21
2019-01-15T17:00:26.771Z,91.92
2019-01-15T17:03:08.683Z,92.09
2019-01-15T17:05:39.140Z,92.01
2019-01-15T17:08:15.434Z,91.80
2019-01-15T17:10:50.928Z,92.41
2019-01-15T17:13:21.306Z,92.47
2019-01-15T17:15:57.525Z,92.57
2019-01-15T17:18:27.885Z,92.74
2019-01-15T17:21:14.438Z,93.01
2019-01-15T17:23:53.580Z,92.45
2019-01-15T17:26:29.704Z,92.31
2019-01-15T17:29:02.730Z,92.54
2019-01-15T17:31:38.914Z,92.54
2019-01-15T17:34:24.666Z,92.59
2019-01-15T17:36:55.010Z,92.88
2019-01-15T17:39:25.416Z,92.77
2019-01-15T17:42:02.052Z,92.46
2019-01-15T17:44:46.855Z,92.76
2019-01-15T17:47:33.569Z,92.48
2019-01-15T17:50:20.325Z,92.54
2019-01-15T17:53:03.090Z,92.46
2019-01-15T17:55:33.427Z,92.11
2019-01-15T17:58:06.602Z,92.31
2019-01-15T18:00:53.170Z,92.50
2019-01-15T18:03:41.354Z,92.43
2019-01-15T18:06:17.012Z,92.23
2019-01-15T18:08:52.811Z,92.02
2019-01-15T18:11:38.067Z,91.96
2019-01-15T18:14:11.437Z,91.90
2019-01-15T18:16:50.561Z,92.14
2019-01-15T18:19:23.615Z,92.20
2019-01-15T18:21:59.696Z,92.04
2019-01-15T18:24:45.042Z,91.81
2019-01-15T18:27:24.404Z,91.92
2019-01-15T18:30:10.438Z,91.75
2019-01-15T18:32:40.841Z,91.84
2019-01-15T18:35:27.167Z,91.40
2019-01-15T18:37:57.506Z,91.34
2019-01-15T18:40:44.630Z,91.50
2019-01-15T18:43:17.158Z,91.18
2019-01-15T18:45:50.168Z,91.07
2019-01-15T18:48:29.488Z,91.08
2019-01-15T18:51:16.121Z,91.54
2019-01-15T18:54:02.929Z,91.34
2019-01-15T18:56:48.001Z,91.11
2019-01-15T18:59:33.180Z,91.08
2019-01-15T19:02:06.272Z,90.72
2019-01-15T19:04:47.662Z,90.76
2019-01-15T19:07:34.207Z,91.17
2019-01-15T19:10:10.715Z,91.05
2019-01-15T19:12:41.016Z,91.40
2019-01-15T19:15:23.579Z,91.51
2019-01-15T19:17:53.879Z,91.15
2019-01-15T19:20:29.446Z,91.29
2019-01-15T19:22:59.770Z,91.11
2019-01-15T19:25:30.192Z,91.09
2019-01-15T19:28:06.535Z,91.22
2019-01-15T19:30:39.652Z,91.20
2019-01-15T19:33:18.859Z,91.00
2019-01-15T19:35:51.609Z,91.03
2019-01-15T19:38:30.664Z,91.16
2019-01-15T19:41:17.291Z,90.99
2019-01-15T19:44:06.191Z,91.02
2019-01-15T19:46:52.630Z,90.93
2019-01-15T19:49:39.149Z,91.15
2019-01-15T19:52:15.484Z,91.33
2019-01-15T19:54:45.865Z,91.39
2019-01-15T19:57:22.003Z,91.14
2019-01-15T19:59:52.389Z,91.78
2019-01-15T20:02:25.751Z,91.66
2019-01-15T20:05:12.053Z,91.68
2019-01-15T20:07:58.251Z,91.83
2019-01-15T20:10:31.094Z,91.55
2019-01-15T20:13:07.013Z,91.80
2019-01-15T20:15:53.743Z,91.98
2019-01-15T20:18:42.491Z,91.91
2019-01-15T20:21:12.854Z,91.44
2019-01-15T20:23:54.535Z,91.31
2019-01-15T20:26:41.132Z,91.57
2019-01-15T20:29:16.992Z,91.67
2019-01-15T20:31:47.381Z,91.92
2019-01-15T20:34:22.532Z,91.68
2019-01-15T20:36:52.894Z,91.56
2019-01-15T20:39:39.145Z,91.31
2019-01-15T20:42:09.522Z,91.23
2019-01-15T20:44:42.688Z,91.45
2019-01-15T20:47:28.141Z,91.67
2019-01-15T20:50:15.253Z,91.64
2019-01-15T20:52:57.840Z,91.31
2019-01-15T20:55:33.941Z,91.34
2019-01-15T20:58:20.816Z,91.39
2019-01-15T21:01:07.236Z,91.40
2019-01-15T21:03:49.569Z,91.59
2019-01-15T21:06:19.636Z,91.34
2019-01-15T21:08:49.586Z,91.81
2019-01-15T21:11:22.466Z,91.45
2019-01-15T21:13:52.808Z,91.72
2019-01-15T21:16:22.896Z,91.58
2019-01-15T21:19:09.243Z,91.78
2019-01-15T21:21:39.595Z,92.11
2019-01-15T21:24:15.218Z,91.96
2019-01-15T21:26:51.393Z,91.98
2019-01-15T21:29:24.752Z,91.95
2019-01-15T21:32:13.009Z,92.26
2019-01-15T21:34:52.132Z,92.32
2019-01-15T21:37:22.709Z,92.12
2019-01-15T21:39:56.036Z,92.40
2019-01-15T21:42:26.929Z,92.47
2019-01-15T21:45:13.147Z,92.62
2019-01-15T21:47:43.488Z,92.62
2019-01-15T21:50:16.688Z,92.64
2019-01-15T21:53:03.165Z,93.06
2019-01-15T21:55:39.534Z,92.78
2019-01-15T21:58:12.529Z,93.05
2019-01-15T22:00:45.533Z,93.04
2019-01-15T22:03:30.906Z,92.95
2019-01-15T22:06:17.109Z,93.12
2019-01-15T22:08:53.302Z,93.28
2019-01-15T22:11:23.713Z,93.21
2019-01-15T22:14:10.027Z,93.14
2019-01-15T22:16:43.241Z,93.13
2019-01-15T22:19:13.321Z,93.10
2019-01-15T22:21:46.340Z,93.23
2019-01-15T22:24:16.734Z,93.29
2019-01-15T22:26:52.428Z,93.44
2019-01-15T22:29:34.784Z,93.47
2019-01-15T22:32:05.158Z,93.52
2019-01-15T22:34:46.055Z,93.33
2019-01-15T22:37:16.385Z,93.19
2019-01-15T22:40:01.710Z,93.20
2019-01-15T22:42:34.520Z,93.40
2019-01-15T22:45:05.019Z,93.33
2019-01-15T22:47:41.257Z,93.20
2019-01-15T22:50:23.703Z,93.54
2019-01-15T22:52:54.077Z,93.30
2019-01-15T22:55:36.263Z,93.11
2019-01-15T22:58:09.406Z,93.53
2019-01-15T23:00:58.914Z,93.59
2019-01-15T23:03:29.288Z,93.72
2019-01-15T23:06:17.469Z,93.75
2019-01-15T23:08:53.867Z,93.62
2019-01-15T23:11:30.075Z,93.37
2019-01-15T23:14:00.188Z,93.53
2019-01-15T23:16:30.535Z,93.32
2019-01-15T23:19:06.416Z,93.57
2019-01-15T23:21:39.182Z,93.48
2019-01-15T23:24:12.229Z,93.41
2019-01-15T23:26:49.472Z,93.35
2019-01-15T23:29:23.460Z,93.52
2019-01-15T23:32:07.087Z,93.64
2019-01-15T23:34:38.182Z,93.69
2019-01-15T23:37:08.603Z,93.65
2019-01-15T23:39:44.981Z,93.56
2019-01-15T23:42:17.716Z,93.52
2019-01-15T23:44:50.512Z,93.52
2019-01-15T23:47:20.866Z,93.37
2019-01-15T23:49:50.930Z,93.44
2019-01-15T23:52:30.077Z,93.50
2019-01-15T23:55:05.609Z,93.63
2019-01-15T23:57:44.916Z,93.26
